Time;durP1;ratioP1;P1;durP2;ratioP2;P2;SDS_P1;SDS_P2;PMS_P1;PMS_P2;Temp;Humidity;BMP_temperature;BMP_pressure;BME280_temperature;BME280_humidity;BME280_pressure;Samples;Min_cycle;Max_cycle;Signal;HPM_P1;HPM_P2
2023/11/24 00:00:35;;;;;;;1.43;1.03;;;;;;;;;;6280013;28;20456;-68
2023/11/24 00:03:39;;;;;;;1.07;1.07;;;;;;;;;;6280591;28;20290;-68
2023/11/24 00:06:42;;;;;;;3.07;1.13;;;;;;;;;;6286391;28;20313;-68
2023/11/24 00:09:46;;;;;;;1.33;1.17;;;;;;;;;;6286471;28;20333;-68
2023/11/24 00:12:51;;;;;;;1.53;1.10;;;;;;;;;;6281322;28;20310;-69
2023/11/24 00:15:56;;;;;;;0.97;0.90;;;;;;;;;;6281709;28;20306;-69
2023/11/24 00:19:00;;;;;;;1.83;0.90;;;;;;;;;;6256424;28;20294;-69
2023/11/24 00:22:04;;;;;;;0.90;0.90;;;;;;;;;;6265771;28;20539;-68
2023/11/24 00:25:09;;;;;;;2.30;1.13;;;;;;;;;;6280089;28;20313;-68
2023/11/24 00:28:13;;;;;;;0.90;0.90;;;;;;;;;;6253219;28;20313;-68
2023/11/24 00:31:19;;;;;;;2.97;1.13;;;;;;;;;;6280811;28;20297;-69
2023/11/24 00:34:25;;;;;;;1.20;1.10;;;;;;;;;;6262321;28;20331;-69
2023/11/24 00:37:29;;;;;;;2.53;1.20;;;;;;;;;;6252941;28;20226;-69
2023/11/24 00:40:32;;;;;;;1.40;1.07;;;;;;;;;;6295821;28;20302;-68
2023/11/24 00:43:36;;;;;;;1.20;1.20;;;;;;;;;;6280163;28;20302;-70
2023/11/24 00:46:41;;;;;;;1.53;1.10;;;;;;;;;;6280199;28;20297;-68
2023/11/24 00:49:47;;;;;;;1.10;1.10;;;;;;;;;;6295061;28;20306;-69
2023/11/24 00:52:51;;;;;;;1.30;1.17;;;;;;;;;;6262174;28;20285;-69
2023/11/24 00:55:56;;;;;;;2.07;1.17;;;;;;;;;;6262454;28;20309;-69
2023/11/24 00:59:00;;;;;;;1.77;1.40;;;;;;;;;;6259855;28;20754;-68
2023/11/24 01:02:05;;;;;;;3.47;1.30;;;;;;;;;;6280456;28;20305;-69
2023/11/24 01:05:10;;;;;;;1.20;1.13;;;;;;;;;;6277714;28;20306;-70
2023/11/24 01:08:13;;;;;;;2.77;1.30;;;;;;;;;;6279922;28;20308;-69
2023/11/24 01:11:17;;;;;;;1.20;1.10;;;;;;;;;;6295135;28;20298;-69
2023/11/24 01:14:21;;;;;;;1.37;1.30;;;;;;;;;;6269883;28;20314;-72
2023/11/24 01:17:26;;;;;;;2.70;1.47;;;;;;;;;;6246128;28;20286;-69
2023/11/24 01:20:30;;;;;;;1.17;1.10;;;;;;;;;;6279571;28;20765;-69
2023/11/24 01:23:35;;;;;;;1.73;1.20;;;;;;;;;;6261609;28;20309;-70
2023/11/24 01:26:39;;;;;;;1.90;1.13;;;;;;;;;;6279093;28;20228;-69
2023/11/24 01:29:43;;;;;;;2.63;1.33;;;;;;;;;;6250920;28;20570;-69
2023/11/24 01:32:48;;;;;;;4.90;1.40;;;;;;;;;;6279381;28;20311;-70
2023/11/24 01:35:53;;;;;;;5.70;1.33;;;;;;;;;;6279483;28;20345;-69
2023/11/24 01:38:57;;;;;;;3.83;1.53;;;;;;;;;;6278709;28;20317;-69
2023/11/24 01:42:00;;;;;;;5.63;1.63;;;;;;;;;;6279030;28;20294;-70
2023/11/24 01:45:07;;;;;;;2.97;1.50;;;;;;;;;;6259383;28;20310;-69
2023/11/24 01:48:14;;;;;;;4.80;1.33;;;;;;;;;;6278285;28;20384;-70
2023/11/24 01:51:19;;;;;;;3.67;1.47;;;;;;;;;;6293405;28;20465;-68
2023/11/24 01:54:25;;;;;;;3.83;1.33;;;;;;;;;;6260320;28;20292;-69
2023/11/24 01:57:29;;;;;;;4.70;1.60;;;;;;;;;;6260110;28;20292;-68
2023/11/24 02:00:33;;;;;;;1.37;1.17;;;;;;;;;;6259368;28;20293;-68
2023/11/24 02:03:39;;;;;;;1.40;1.40;;;;;;;;;;6259662;28;20336;-68
2023/11/24 02:06:43;;;;;;;6.40;1.30;;;;;;;;;;6293593;28;20264;-68
2023/11/24 02:09:46;;;;;;;2.53;1.50;;;;;;;;;;6278216;28;20308;-68
2023/11/24 02:12:51;;;;;;;1.70;1.43;;;;;;;;;;6293818;28;20296;-69
2023/11/24 02:15:55;;;;;;;2.93;1.40;;;;;;;;;;6260973;28;20312;-68
2023/11/24 02:19:02;;;;;;;2.30;1.30;;;;;;;;;;6260677;28;20281;-70
2023/11/24 02:22:06;;;;;;;2.77;1.27;;;;;;;;;;6294041;28;20301;-69
2023/11/24 02:25:12;;;;;;;3.47;1.50;;;;;;;;;;6283954;28;20439;-68
2023/11/24 02:28:16;;;;;;;3.90;1.47;;;;;;;;;;6293484;28;20422;-70
2023/11/24 02:31:20;;;;;;;2.73;1.20;;;;;;;;;;6278949;28;20309;-69
2023/11/24 02:34:24;;;;;;;3.50;1.17;;;;;;;;;;6293411;28;20449;-68
2023/11/24 02:37:28;;;;;;;1.47;1.20;;;;;;;;;;6293594;28;20287;-73
2023/11/24 02:40:33;;;;;;;4.70;1.37;;;;;;;;;;6276920;28;20304;-69
2023/11/24 02:43:37;;;;;;;3.50;1.40;;;;;;;;;;6269824;28;20281;-68
2023/11/24 02:46:41;;;;;;;1.20;1.20;;;;;;;;;;6279262;28;20312;-68
2023/11/24 02:49:44;;;;;;;3.97;1.53;;;;;;;;;;6278310;28;20300;-68
2023/11/24 02:52:49;;;;;;;2.03;1.40;;;;;;;;;;6293087;28;20331;-68
2023/11/24 02:55:55;;;;;;;2.43;1.40;;;;;;;;;;6278853;28;20293;-68
2023/11/24 02:58:59;;;;;;;2.63;1.30;;;;;;;;;;6257618;28;20308;-69
2023/11/24 03:02:03;;;;;;;4.37;1.30;;;;;;;;;;6259415;28;20320;-69
2023/11/24 03:05:08;;;;;;;1.23;1.10;;;;;;;;;;6259825;28;20320;-69
2023/11/24 03:08:13;;;;;;;2.73;1.10;;;;;;;;;;6259785;28;20255;-68
2023/11/24 03:11:18;;;;;;;1.90;1.30;;;;;;;;;;6278678;28;20642;-69
2023/11/24 03:14:23;;;;;;;2.80;1.10;;;;;;;;;;6278084;28;20331;-69
2023/11/24 03:17:27;;;;;;;1.20;1.10;;;;;;;;;;6283351;28;20284;-69
2023/11/24 03:20:31;;;;;;;3.43;1.30;;;;;;;;;;6282665;28;20296;-69
2023/11/24 03:23:34;;;;;;;3.27;1.13;;;;;;;;;;6282212;28;20293;-69
2023/11/24 03:26:40;;;;;;;1.60;1.50;;;;;;;;;;6264501;28;20463;-68
2023/11/24 03:29:43;;;;;;;2.87;1.50;;;;;;;;;;6238062;28;20300;-68
2023/11/24 03:32:47;;;;;;;1.70;1.30;;;;;;;;;;6282199;28;20306;-69
2023/11/24 03:35:51;;;;;;;3.00;1.17;;;;;;;;;;6282693;28;20304;-69
2023/11/24 03:38:57;;;;;;;1.90;1.13;;;;;;;;;;6282256;28;20304;-70
2023/11/24 03:42:03;;;;;;;2.63;1.40;;;;;;;;;;6282649;28;20353;-69
2023/11/24 03:45:07;;;;;;;3.70;1.30;;;;;;;;;;6281622;28;20300;-69
2023/11/24 03:48:12;;;;;;;3.23;1.27;;;;;;;;;;6280571;28;20585;-69
2023/11/24 03:51:19;;;;;;;2.50;1.17;;;;;;;;;;6272274;28;20660;-68
2023/11/24 03:54:23;;;;;;;5.63;1.30;;;;;;;;;;6280804;28;20408;-68
2023/11/24 03:57:28;;;;;;;1.07;1.07;;;;;;;;;;6279373;28;20288;-68
2023/11/24 04:00:32;;;;;;;2.97;1.33;;;;;;;;;;6268917;28;20300;-69
2023/11/24 04:03:36;;;;;;;2.90;1.33;;;;;;;;;;6293540;28;20314;-68
2023/11/24 04:06:40;;;;;;;3.30;1.50;;;;;;;;;;6281331;28;20570;-68
2023/11/24 04:09:43;;;;;;;1.93;1.30;;;;;;;;;;6296037;28;20307;-68
2023/11/24 04:12:49;;;;;;;4.40;1.27;;;;;;;;;;6286393;28;20386;-69
2023/11/24 04:15:53;;;;;;;3.70;1.30;;;;;;;;;;6281141;28;20485;-69
2023/11/24 04:18:57;;;;;;;1.37;1.27;;;;;;;;;;6280197;28;20293;-71
2023/11/24 04:22:00;;;;;;;3.33;1.00;;;;;;;;;;6281162;28;20320;-68
2023/11/24 04:25:05;;;;;;;0.97;0.97;;;;;;;;;;6268694;28;20305;-68
2023/11/24 04:28:11;;;;;;;1.83;1.00;;;;;;;;;;6252802;28;20246;-70
2023/11/24 04:31:14;;;;;;;1.10;1.10;;;;;;;;;;6281021;28;20293;-69
2023/11/24 04:34:21;;;;;;;0.90;0.90;;;;;;;;;;6280555;28;20322;-68
2023/11/24 04:37:25;;;;;;;2.67;1.20;;;;;;;;;;6280962;28;20592;-68
2023/11/24 04:40:29;;;;;;;1.00;1.00;;;;;;;;;;6280454;28;20346;-70
2023/11/24 04:43:34;;;;;;;1.30;1.20;;;;;;;;;;6279857;28;20286;-68
2023/11/24 04:46:38;;;;;;;1.60;1.10;;;;;;;;;;6280616;28;20297;-71
2023/11/24 04:49:43;;;;;;;2.27;1.10;;;;;;;;;;6280069;28;20386;-69
2023/11/24 04:52:47;;;;;;;2.13;1.00;;;;;;;;;;6280236;28;20458;-69
2023/11/24 04:55:51;;;;;;;2.27;1.00;;;;;;;;;;6256005;28;20324;-70
2023/11/24 04:58:56;;;;;;;0.93;0.90;;;;;;;;;;6263632;28;20329;-69
2023/11/24 05:02:02;;;;;;;1.80;0.83;;;;;;;;;;6280155;28;20289;-68
2023/11/24 05:05:07;;;;;;;1.30;1.20;;;;;;;;;;6279181;28;20373;-68
2023/11/24 05:08:11;;;;;;;1.17;1.07;;;;;;;;;;6279738;28;20349;-69
2023/11/24 05:11:16;;;;;;;2.83;1.10;;;;;;;;;;6280098;28;20297;-70
2023/11/24 05:14:22;;;;;;;1.90;1.00;;;;;;;;;;6279755;28;20321;-69
2023/11/24 05:17:26;;;;;;;2.50;0.97;;;;;;;;;;6279912;28;20293;-70
2023/11/24 05:20:30;;;;;;;0.93;0.93;;;;;;;;;;6279261;28;20600;-70
2023/11/24 05:23:34;;;;;;;0.90;0.90;;;;;;;;;;6279030;28;20311;-70
2023/11/24 05:26:37;;;;;;;2.57;1.10;;;;;;;;;;6279724;28;20394;-69
2023/11/24 05:29:43;;;;;;;1.53;0.90;;;;;;;;;;6279289;28;20237;-75
2023/11/24 05:32:46;;;;;;;1.50;1.20;;;;;;;;;;6251957;28;20309;-68
2023/11/24 05:35:50;;;;;;;0.80;0.80;;;;;;;;;;6279728;28;20320;-68
2023/11/24 05:38:55;;;;;;;4.43;1.00;;;;;;;;;;6278300;28;20608;-68
2023/11/24 05:41:59;;;;;;;0.80;0.80;;;;;;;;;;6279394;28;20305;-68
2023/11/24 05:45:05;;;;;;;3.07;1.20;;;;;;;;;;6279195;28;20313;-69
2023/11/24 05:48:09;;;;;;;2.43;1.00;;;;;;;;;;6252237;28;20239;-71
2023/11/24 05:51:13;;;;;;;1.60;1.00;;;;;;;;;;6279641;28;20304;-68
2023/11/24 05:54:17;;;;;;;2.27;1.10;;;;;;;;;;6279123;28;20289;-72
2023/11/24 05:57:20;;;;;;;1.17;0.97;;;;;;;;;;6279912;28;20299;-69
2023/11/24 06:00:25;;;;;;;1.17;0.90;;;;;;;;;;6277259;28;20300;-68
2023/11/24 06:03:30;;;;;;;2.07;0.90;;;;;;;;;;6278349;28;20620;-68
2023/11/24 06:06:35;;;;;;;0.80;0.80;;;;;;;;;;6278723;28;20322;-70
2023/11/24 06:09:38;;;;;;;1.20;1.10;;;;;;;;;;6277957;28;20314;-68
2023/11/24 06:12:43;;;;;;;3.33;1.07;;;;;;;;;;6278800;28;20304;-69
2023/11/24 06:15:48;;;;;;;3.07;0.87;;;;;;;;;;6278294;28;20435;-69
2023/11/24 06:18:52;;;;;;;1.00;1.00;;;;;;;;;;6278184;28;20300;-69
2023/11/24 06:21:56;;;;;;;1.00;1.00;;;;;;;;;;6276849;28;20293;-70
2023/11/24 06:25:00;;;;;;;2.73;1.00;;;;;;;;;;6285560;28;20305;-69
2023/11/24 06:28:04;;;;;;;1.17;0.80;;;;;;;;;;6278722;28;20325;-69
2023/11/24 06:31:13;;;;;;;1.00;0.90;;;;;;;;;;6278272;28;20494;-68
2023/11/24 06:34:18;;;;;;;6.97;1.13;;;;;;;;;;6278406;28;20296;-70
2023/11/24 06:37:22;;;;;;;1.20;1.20;;;;;;;;;;6279364;28;20319;-70
2023/11/24 06:40:27;;;;;;;0.70;0.70;;;;;;;;;;6283954;28;20292;-70
2023/11/24 06:43:31;;;;;;;3.00;0.80;;;;;;;;;;6278214;28;20289;-69
2023/11/24 06:46:37;;;;;;;0.90;0.90;;;;;;;;;;6253941;28;20289;-69
2023/11/24 06:49:41;;;;;;;1.10;1.00;;;;;;;;;;6265006;28;20300;-69
2023/11/24 06:52:46;;;;;;;5.83;1.00;;;;;;;;;;6282867;28;20293;-69
2023/11/24 06:55:50;;;;;;;0.93;0.70;;;;;;;;;;6256529;28;20476;-69
2023/11/24 06:58:54;;;;;;;1.07;0.97;;;;;;;;;;6281007;28;20498;-68
2023/11/24 07:02:00;;;;;;;1.70;0.90;;;;;;;;;;6283564;28;20316;-67
2023/11/24 07:05:04;;;;;;;2.63;0.77;;;;;;;;;;6282361;28;20301;-69
2023/11/24 07:08:09;;;;;;;3.53;1.03;;;;;;;;;;6287281;28;20593;-69
2023/11/24 07:11:13;;;;;;;5.43;1.00;;;;;;;;;;6274035;28;20241;-71
2023/11/24 07:14:17;;;;;;;1.13;0.83;;;;;;;;;;6283061;28;20292;-67
2023/11/24 07:17:22;;;;;;;4.83;1.00;;;;;;;;;;6282875;28;20294;-69
2023/11/24 07:20:26;;;;;;;1.77;1.00;;;;;;;;;;6282610;28;20551;-70
2023/11/24 07:23:29;;;;;;;2.67;1.03;;;;;;;;;;6282351;28;20475;-69
2023/11/24 07:26:33;;;;;;;3.90;1.10;;;;;;;;;;6282472;28;20292;-69
2023/11/24 07:29:40;;;;;;;1.87;1.00;;;;;;;;;;6281596;28;20300;-69
2023/11/24 07:32:45;;;;;;;1.20;1.00;;;;;;;;;;6282524;28;20301;-70
2023/11/24 07:35:49;;;;;;;2.13;0.93;;;;;;;;;;6262828;28;20312;-68
2023/11/24 07:38:53;;;;;;;3.87;0.97;;;;;;;;;;6282151;28;20300;-70
2023/11/24 07:41:58;;;;;;;1.00;1.00;;;;;;;;;;6257430;28;20292;-68
2023/11/24 07:45:02;;;;;;;2.63;1.40;;;;;;;;;;6266091;28;20476;-68
2023/11/24 07:48:08;;;;;;;1.17;1.07;;;;;;;;;;6281407;28;20295;-68
2023/11/24 07:51:12;;;;;;;1.07;1.07;;;;;;;;;;6281675;28;20495;-68
2023/11/24 07:54:16;;;;;;;2.67;0.90;;;;;;;;;;6280926;28;20319;-69
2023/11/24 07:57:20;;;;;;;0.70;0.70;;;;;;;;;;6281082;28;20298;-70
2023/11/24 08:00:24;;;;;;;3.53;1.20;;;;;;;;;;6278284;28;20388;-68
2023/11/24 08:03:29;;;;;;;4.13;0.90;;;;;;;;;;6262967;28;20316;-68
2023/11/24 08:06:33;;;;;;;4.43;1.00;;;;;;;;;;6232191;28;20297;-69
2023/11/24 08:09:37;;;;;;;0.90;0.90;;;;;;;;;;6231713;28;20261;-69
2023/11/24 08:12:42;;;;;;;1.17;1.10;;;;;;;;;;6223545;28;20569;-70
2023/11/24 08:15:46;;;;;;;2.83;0.90;;;;;;;;;;6232014;28;20489;-69
2023/11/24 08:18:52;;;;;;;2.93;0.80;;;;;;;;;;6231749;28;20297;-69
2023/11/24 08:21:58;;;;;;;1.77;0.90;;;;;;;;;;6231926;28;20300;-69
2023/11/24 08:25:03;;;;;;;2.03;1.00;;;;;;;;;;6231674;28;20395;-70
2023/11/24 08:28:07;;;;;;;6.67;0.97;;;;;;;;;;6231594;28;20300;-70
2023/11/24 08:31:16;;;;;;;1.03;1.00;;;;;;;;;;6231630;28;20338;-69
2023/11/24 08:34:22;;;;;;;1.57;1.00;;;;;;;;;;6231006;28;20332;-69
2023/11/24 08:37:27;;;;;;;1.90;0.90;;;;;;;;;;6231748;28;20622;-70
2023/11/24 08:40:31;;;;;;;2.00;1.03;;;;;;;;;;6231139;28;20292;-69
2023/11/24 08:43:37;;;;;;;5.73;1.10;;;;;;;;;;6231107;28;20299;-69
2023/11/24 08:46:42;;;;;;;1.50;0.87;;;;;;;;;;6231343;28;20292;-69
2023/11/24 08:49:47;;;;;;;1.43;0.80;;;;;;;;;;6230947;28;20300;-68
2023/11/24 08:52:52;;;;;;;6.83;1.00;;;;;;;;;;6230861;28;20305;-69
2023/11/24 08:55:56;;;;;;;8.70;1.20;;;;;;;;;;6231362;28;20309;-68
2023/11/24 08:59:03;;;;;;;1.07;1.03;;;;;;;;;;6228646;28;20621;-69
2023/11/24 09:02:06;;;;;;;0.80;0.80;;;;;;;;;;6231194;28;20304;-69
2023/11/24 09:05:12;;;;;;;2.07;1.00;;;;;;;;;;6257279;28;20295;-68
2023/11/24 09:08:17;;;;;;;1.90;0.87;;;;;;;;;;6279549;28;20620;-69
2023/11/24 09:11:23;;;;;;;2.40;0.90;;;;;;;;;;6261077;28;20298;-70
2023/11/24 09:14:27;;;;;;;1.90;0.90;;;;;;;;;;6279186;28;20306;-69
2023/11/24 09:17:30;;;;;;;1.50;1.07;;;;;;;;;;6279779;28;20292;-68
2023/11/24 09:20:36;;;;;;;1.93;1.07;;;;;;;;;;6284870;28;20298;-70
2023/11/24 09:23:40;;;;;;;3.90;1.10;;;;;;;;;;6279266;28;20295;-69
2023/11/24 09:26:44;;;;;;;1.17;1.00;;;;;;;;;;6261697;28;20298;-68
2023/11/24 09:29:47;;;;;;;1.03;1.03;;;;;;;;;;6278489;28;20291;-69
2023/11/24 09:32:54;;;;;;;1.53;0.93;;;;;;;;;;6284353;28;20232;-70
2023/11/24 09:36:00;;;;;;;1.87;1.00;;;;;;;;;;6280070;28;20297;-69
2023/11/24 09:39:05;;;;;;;0.80;0.80;;;;;;;;;;6279153;28;20479;-70
2023/11/24 09:42:11;;;;;;;4.43;1.17;;;;;;;;;;6279148;28;20461;-70
2023/11/24 09:45:22;;;;;;;2.33;0.97;;;;;;;;;;6278136;28;20296;-69
2023/11/24 09:48:29;;;;;;;2.20;1.00;;;;;;;;;;6278790;28;20300;-69
2023/11/24 09:51:37;;;;;;;1.20;1.20;;;;;;;;;;6279095;28;20583;-70
2023/11/24 09:54:41;;;;;;;1.20;1.10;;;;;;;;;;6278441;28;20445;-69
2023/11/24 09:57:45;;;;;;;2.90;1.30;;;;;;;;;;6279161;28;20302;-70
2023/11/24 10:00:50;;;;;;;2.90;1.23;;;;;;;;;;6276876;28;20288;-69
2023/11/24 10:03:55;;;;;;;4.53;1.40;;;;;;;;;;6278519;28;20321;-68
2023/11/24 10:07:01;;;;;;;1.30;1.30;;;;;;;;;;6279319;28;20383;-70
2023/11/24 10:10:06;;;;;;;1.63;1.37;;;;;;;;;;6278853;28;20307;-69
2023/11/24 10:13:10;;;;;;;1.60;1.00;;;;;;;;;;6278715;28;20565;-70
2023/11/24 10:16:14;;;;;;;1.87;1.30;;;;;;;;;;6278541;28;20368;-69
2023/11/24 10:19:17;;;;;;;1.47;1.37;;;;;;;;;;6294064;28;20533;-70
2023/11/24 10:22:29;;;;;;;4.83;1.63;;;;;;;;;;6279275;28;20300;-71
2023/11/24 10:25:34;;;;;;;2.20;1.40;;;;;;;;;;6278451;28;20545;-69
2023/11/24 10:28:39;;;;;;;3.07;1.43;;;;;;;;;;6278157;28;20318;-70
2023/11/24 10:31:43;;;;;;;1.47;1.40;;;;;;;;;;6278626;28;20341;-69
2023/11/24 10:34:47;;;;;;;2.97;1.30;;;;;;;;;;6278556;28;20293;-69
2023/11/24 10:37:54;;;;;;;1.83;1.20;;;;;;;;;;6278436;28;20273;-69
2023/11/24 10:40:58;;;;;;;2.60;1.27;;;;;;;;;;6278514;28;20536;-69
2023/11/24 10:44:06;;;;;;;2.23;2.00;;;;;;;;;;6278161;28;20305;-69
2023/11/24 10:47:13;;;;;;;3.63;1.43;;;;;;;;;;6251954;28;20295;-68
2023/11/24 10:50:18;;;;;;;1.80;1.33;;;;;;;;;;6278110;28;20438;-70
2023/11/24 10:53:26;;;;;;;1.67;1.40;;;;;;;;;;6277554;28;20295;-69
2023/11/24 10:56:31;;;;;;;1.30;1.23;;;;;;;;;;6278706;28;20305;-69
2023/11/24 10:59:38;;;;;;;2.40;1.43;;;;;;;;;;6276726;28;20643;-68
2023/11/24 11:02:44;;;;;;;2.27;1.50;;;;;;;;;;6278521;28;20599;-68
2023/11/24 11:05:57;;;;;;;1.30;1.30;;;;;;;;;;6277827;28;20384;-71
2023/11/24 11:09:19;;;;;;;1.67;1.67;;;;;;;;;;6292183;28;20297;-69
2023/11/24 11:12:36;;;;;;;2.70;1.63;;;;;;;;;;6278214;28;20307;-69
2023/11/24 11:15:40;;;;;;;1.20;1.10;;;;;;;;;;6277898;28;20294;-70
2023/11/24 11:18:44;;;;;;;3.57;1.90;;;;;;;;;;6278025;28;20310;-69
2023/11/24 11:21:52;;;;;;;2.00;1.70;;;;;;;;;;6278096;28;20504;-69
2023/11/24 11:25:36;;;;;;;3.50;1.40;;;;;;;;;;6249832;28;20494;-68
2023/11/24 11:28:42;;;;;;;2.00;1.33;;;;;;;;;;6277899;28;20602;-70
2023/11/24 11:31:46;;;;;;;3.57;1.40;;;;;;;;;;6277801;28;20244;-70
2023/11/24 11:34:51;;;;;;;2.77;1.40;;;;;;;;;;6278090;28;20293;-69
2023/11/24 11:37:59;;;;;;;3.40;1.67;;;;;;;;;;6281335;28;20297;-71
2023/11/24 11:41:05;;;;;;;1.87;1.17;;;;;;;;;;6282652;28;20677;-68
2023/11/24 11:44:19;;;;;;;1.40;1.10;;;;;;;;;;6281957;28;20303;-68
2023/11/24 11:47:26;;;;;;;1.40;1.30;;;;;;;;;;6282445;28;20287;-69
2023/11/24 11:50:33;;;;;;;1.70;1.30;;;;;;;;;;6281835;28;20299;-69
2023/11/24 11:53:38;;;;;;;1.10;1.07;;;;;;;;;;6281116;28;20325;-70
2023/11/24 11:56:44;;;;;;;1.50;1.40;;;;;;;;;;6270388;28;20601;-71
2023/11/24 11:59:48;;;;;;;1.57;1.47;;;;;;;;;;6279880;28;20298;-68
2023/11/24 12:02:52;;;;;;;1.10;1.07;;;;;;;;;;6281853;28;20301;-68
2023/11/24 12:05:57;;;;;;;1.87;1.53;;;;;;;;;;6281714;28;20301;-70
2023/11/24 12:09:01;;;;;;;3.50;1.30;;;;;;;;;;6281581;28;20305;-69
2023/11/24 12:12:07;;;;;;;1.57;1.40;;;;;;;;;;6254788;28;20232;-69
2023/11/24 12:15:10;;;;;;;1.70;1.27;;;;;;;;;;6281574;28;20296;-70
2023/11/24 12:18:14;;;;;;;1.80;1.37;;;;;;;;;;6281244;28;20299;-71
2023/11/24 12:21:18;;;;;;;1.40;1.30;;;;;;;;;;6281578;28;20285;-71
2023/11/24 12:24:24;;;;;;;1.73;1.03;;;;;;;;;;6281452;28;20586;-68
2023/11/24 12:27:29;;;;;;;1.23;1.10;;;;;;;;;;6273102;28;20320;-69
2023/11/24 12:30:40;;;;;;;1.70;1.47;;;;;;;;;;6281226;28;20287;-69
2023/11/24 12:33:50;;;;;;;2.83;1.40;;;;;;;;;;6295625;28;20551;-70
2023/11/24 12:36:54;;;;;;;1.20;1.10;;;;;;;;;;6281741;28;20305;-70
2023/11/24 12:39:58;;;;;;;1.23;1.20;;;;;;;;;;6281327;28;20318;-68
2023/11/24 12:43:06;;;;;;;6.97;1.33;;;;;;;;;;6280481;28;20301;-68
2023/11/24 12:46:19;;;;;;;1.73;1.27;;;;;;;;;;6281044;28;20295;-68
2023/11/24 12:49:23;;;;;;;3.37;1.43;;;;;;;;;;6262656;28;20308;-69
2023/11/24 12:52:29;;;;;;;6.17;1.23;;;;;;;;;;6280934;28;20301;-69
2023/11/24 12:55:33;;;;;;;3.23;1.20;;;;;;;;;;6280647;28;20292;-70
2023/11/24 12:58:39;;;;;;;2.47;1.20;;;;;;;;;;6280321;28;20310;-74
2023/11/24 13:01:43;;;;;;;3.73;1.50;;;;;;;;;;6280903;28;20393;-69
2023/11/24 13:04:48;;;;;;;1.70;1.60;;;;;;;;;;6295148;28;20307;-69
2023/11/24 13:07:52;;;;;;;1.67;1.57;;;;;;;;;;6280032;28;20304;-70
2023/11/24 13:10:57;;;;;;;3.80;1.50;;;;;;;;;;6278056;28;20307;-70
2023/11/24 13:14:02;;;;;;;1.33;1.33;;;;;;;;;;6287386;28;20243;-72
2023/11/24 13:17:05;;;;;;;1.50;1.40;;;;;;;;;;6280605;28;20302;-69
2023/11/24 13:20:11;;;;;;;2.13;1.30;;;;;;;;;;6269578;28;20310;-68
2023/11/24 13:23:15;;;;;;;1.40;1.30;;;;;;;;;;6279748;28;20619;-69
2023/11/24 13:26:19;;;;;;;2.00;1.07;;;;;;;;;;6280341;28;20319;-69
2023/11/24 13:29:25;;;;;;;1.60;1.50;;;;;;;;;;6279690;28;20478;-69
2023/11/24 13:32:29;;;;;;;1.30;1.30;;;;;;;;;;6279985;28;20304;-69
2023/11/24 13:35:34;;;;;;;2.00;1.30;;;;;;;;;;6279470;28;20323;-67
2023/11/24 13:38:39;;;;;;;1.50;1.40;;;;;;;;;;6279418;28;20299;-69
2023/11/24 13:41:43;;;;;;;2.93;1.30;;;;;;;;;;6279769;28;20332;-68
2023/11/24 13:44:50;;;;;;;1.60;1.40;;;;;;;;;;6279406;28;20308;-69
2023/11/24 13:47:53;;;;;;;1.40;1.30;;;;;;;;;;6279265;28;20525;-69
2023/11/24 13:50:57;;;;;;;1.27;1.27;;;;;;;;;;6279648;28;20312;-69
2023/11/24 13:54:04;;;;;;;1.43;1.40;;;;;;;;;;6260764;28;20355;-67
2023/11/24 13:57:09;;;;;;;1.83;1.50;;;;;;;;;;6279777;28;20284;-70
2023/11/24 14:00:16;;;;;;;2.90;1.40;;;;;;;;;;6276786;28;20298;-68
2023/11/24 14:03:20;;;;;;;1.70;1.40;;;;;;;;;;6278442;28;20291;-70
2023/11/24 14:06:24;;;;;;;1.40;1.30;;;;;;;;;;6270177;28;20299;-68
2023/11/24 14:09:31;;;;;;;1.40;1.30;;;;;;;;;;6278137;28;20296;-68
2023/11/24 14:12:35;;;;;;;2.97;1.40;;;;;;;;;;6261263;28;20303;-71
2023/11/24 14:15:41;;;;;;;1.40;1.40;;;;;;;;;;6278693;28;20470;-70
2023/11/24 14:18:47;;;;;;;1.47;1.03;;;;;;;;;;6278349;28;20247;-69
2023/11/24 14:21:55;;;;;;;1.40;1.30;;;;;;;;;;6251779;28;20349;-70
2023/11/24 14:24:59;;;;;;;1.57;1.23;;;;;;;;;;6278679;28;20298;-69
2023/11/24 14:28:03;;;;;;;1.33;0.97;;;;;;;;;;6278780;28;20299;-69
2023/11/24 14:31:11;;;;;;;3.40;1.10;;;;;;;;;;6279506;28;20291;-69
2023/11/24 14:34:17;;;;;;;1.30;1.20;;;;;;;;;;6278656;28;20300;-70
2023/11/24 14:37:22;;;;;;;0.90;0.90;;;;;;;;;;6251578;28;20339;-69
2023/11/24 14:40:28;;;;;;;0.93;0.93;;;;;;;;;;6278695;28;20298;-70
2023/11/24 14:43:33;;;;;;;1.27;1.17;;;;;;;;;;6277900;28;20275;-68
2023/11/24 14:46:38;;;;;;;1.27;1.27;;;;;;;;;;6293078;28;20299;-70
2023/11/24 14:49:42;;;;;;;1.83;1.30;;;;;;;;;;6293000;28;20298;-69
2023/11/24 14:52:46;;;;;;;1.00;1.00;;;;;;;;;;6278014;28;20295;-72
2023/11/24 14:55:50;;;;;;;1.20;1.20;;;;;;;;;;6249640;28;20239;-68
2023/11/24 14:58:54;;;;;;;1.17;1.17;;;;;;;;;;6276409;28;20614;-69
2023/11/24 15:02:06;;;;;;;1.20;1.20;;;;;;;;;;6278173;28;20374;-70
2023/11/24 15:05:15;;;;;;;1.37;1.30;;;;;;;;;;6277792;28;20319;-69
2023/11/24 15:08:19;;;;;;;2.13;1.20;;;;;;;;;;6277828;28;20299;-68
2023/11/24 15:11:33;;;;;;;1.73;1.10;;;;;;;;;;6281171;28;20286;-68
2023/11/24 15:14:39;;;;;;;1.40;1.30;;;;;;;;;;6282919;28;20241;-68
2023/11/24 15:17:45;;;;;;;1.07;1.07;;;;;;;;;;6282868;28;20289;-68
2023/11/24 15:20:52;;;;;;;1.17;1.10;;;;;;;;;;6282381;28;20328;-71
2023/11/24 15:23:57;;;;;;;1.20;1.10;;;;;;;;;;6282286;28;20562;-69
2023/11/24 15:27:03;;;;;;;0.90;0.90;;;;;;;;;;6282712;28;20294;-68
2023/11/24 15:30:11;;;;;;;0.90;0.90;;;;;;;;;;6282231;28;20295;-68
2023/11/24 15:33:18;;;;;;;1.00;1.00;;;;;;;;;;6282510;28;20314;-70
2023/11/24 15:36:27;;;;;;;1.10;1.10;;;;;;;;;;6282441;28;20372;-69
2023/11/24 15:39:39;;;;;;;1.17;1.17;;;;;;;;;;6282142;28;20300;-69
2023/11/24 15:42:43;;;;;;;1.90;1.80;;;;;;;;;;6282500;28;20505;-69
2023/11/24 15:45:49;;;;;;;3.43;1.20;;;;;;;;;;6281468;28;20374;-68
2023/11/24 15:48:54;;;;;;;1.97;1.30;;;;;;;;;;6281664;28;20324;-69
2023/11/24 15:51:59;;;;;;;1.30;1.20;;;;;;;;;;6282203;28;20311;-70
2023/11/24 15:55:04;;;;;;;1.10;1.10;;;;;;;;;;6281439;28;20244;-70
2023/11/24 15:58:11;;;;;;;2.33;1.10;;;;;;;;;;6281390;28;20283;-69
2023/11/24 16:01:15;;;;;;;1.53;1.33;;;;;;;;;;6279794;28;20295;-69
2023/11/24 16:04:21;;;;;;;1.80;1.00;;;;;;;;;;6280923;28;20458;-69
2023/11/24 16:07:32;;;;;;;1.23;1.23;;;;;;;;;;6281407;28;20287;-70
2023/11/24 16:10:42;;;;;;;2.47;1.10;;;;;;;;;;6295912;28;20295;-69
2023/11/24 16:13:49;;;;;;;0.90;0.90;;;;;;;;;;6280863;28;20294;-69
2023/11/24 16:16:53;;;;;;;1.30;1.30;;;;;;;;;;6281368;28;20257;-68
2023/11/24 16:19:59;;;;;;;1.10;1.10;;;;;;;;;;6280522;28;20343;-69
2023/11/24 16:23:04;;;;;;;1.10;1.00;;;;;;;;;;6279894;28;20338;-69
2023/11/24 16:26:09;;;;;;;1.20;1.20;;;;;;;;;;6280851;28;20299;-69
2023/11/24 16:29:15;;;;;;;2.10;1.30;;;;;;;;;;6280552;28;20291;-69
2023/11/24 16:32:22;;;;;;;1.10;1.10;;;;;;;;;;6281291;28;20292;-69
2023/11/24 16:35:27;;;;;;;1.23;1.23;;;;;;;;;;6280272;28;20336;-69
2023/11/24 16:38:31;;;;;;;1.20;1.20;;;;;;;;;;6281058;28;20303;-69
2023/11/24 16:41:35;;;;;;;1.77;1.67;;;;;;;;;;6281674;28;20302;-70
2023/11/24 16:44:39;;;;;;;1.57;1.47;;;;;;;;;;6280732;28;20287;-70
2023/11/24 16:47:43;;;;;;;2.03;1.53;;;;;;;;;;6267101;28;20322;-70
2023/11/24 16:50:50;;;;;;;1.33;1.33;;;;;;;;;;6280245;28;20299;-71
2023/11/24 16:53:54;;;;;;;1.60;1.47;;;;;;;;;;6279976;28;20306;-70
2023/11/24 16:56:58;;;;;;;1.90;1.70;;;;;;;;;;6279170;28;20254;-68
2023/11/24 17:00:04;;;;;;;2.20;1.57;;;;;;;;;;6278211;28;20722;-69
2023/11/24 17:03:10;;;;;;;1.53;1.30;;;;;;;;;;6280562;28;20289;-70
2023/11/24 17:06:16;;;;;;;1.60;1.50;;;;;;;;;;6280379;28;20311;-70
2023/11/24 17:09:20;;;;;;;1.67;1.57;;;;;;;;;;6279747;28;20457;-71
2023/11/24 17:12:25;;;;;;;1.50;1.50;;;;;;;;;;6285322;28;20323;-69
2023/11/24 17:15:29;;;;;;;1.50;1.50;;;;;;;;;;6279766;28;20297;-68
2023/11/24 17:18:36;;;;;;;1.87;1.77;;;;;;;;;;6279626;28;20294;-68
2023/11/24 17:21:41;;;;;;;1.80;1.70;;;;;;;;;;6280285;28;20288;-70
2023/11/24 17:24:45;;;;;;;1.80;1.70;;;;;;;;;;6279026;28;20298;-70
2023/11/24 17:27:50;;;;;;;1.70;1.50;;;;;;;;;;6279343;28;20298;-69
2023/11/24 17:30:54;;;;;;;2.10;1.60;;;;;;;;;;6261137;28;20322;-68
2023/11/24 17:33:57;;;;;;;2.50;1.50;;;;;;;;;;6254288;28;20298;-71
2023/11/24 17:37:05;;;;;;;2.73;1.60;;;;;;;;;;6271480;28;20509;-69
2023/11/24 17:40:14;;;;;;;2.07;1.90;;;;;;;;;;6279111;28;20494;-68
2023/11/24 17:43:18;;;;;;;1.80;1.70;;;;;;;;;;6279514;28;20607;-69
2023/11/24 17:46:22;;;;;;;2.27;2.13;;;;;;;;;;6270916;28;20329;-69
2023/11/24 17:49:26;;;;;;;2.10;1.90;;;;;;;;;;6284562;28;20537;-68
2023/11/24 17:52:32;;;;;;;1.87;1.87;;;;;;;;;;6279660;28;20383;-70
2023/11/24 17:55:35;;;;;;;2.27;2.20;;;;;;;;;;6278945;28;20298;-68
2023/11/24 17:58:40;;;;;;;2.90;2.70;;;;;;;;;;6279103;28;20475;-74
2023/11/24 18:01:44;;;;;;;3.63;2.73;;;;;;;;;;6279131;28;20301;-70
2023/11/24 18:04:48;;;;;;;2.10;2.00;;;;;;;;;;6278626;28;20292;-68
2023/11/24 18:07:53;;;;;;;2.00;1.90;;;;;;;;;;6278937;28;20307;-69
2023/11/24 18:10:57;;;;;;;2.37;1.80;;;;;;;;;;6278950;28;20296;-68
2023/11/24 18:14:01;;;;;;;2.00;1.90;;;;;;;;;;6278643;28;20317;-69
2023/11/24 18:17:05;;;;;;;2.00;1.90;;;;;;;;;;6252183;28;20235;-70
2023/11/24 18:20:10;;;;;;;2.17;2.07;;;;;;;;;;6278355;28;20297;-69
2023/11/24 18:23:19;;;;;;;2.90;1.97;;;;;;;;;;6283764;28;20221;-71
2023/11/24 18:26:25;;;;;;;2.07;2.07;;;;;;;;;;6279077;28;20297;-69
2023/11/24 18:29:29;;;;;;;1.83;1.83;;;;;;;;;;6278328;28;20309;-69